.
WxDataArchive / Data Records for 2010-10-23
2010-10-22 October 2010 2010-10-24

Data Records for Saturday, 23 October 2010

Time	Temp	Chill	HIndex	Humid	Dewpt	 Wind 	HiWind	WindDir	Rain 	Barom 
-----	----	-----	------	-----	-----	------	------	-------	-----	----- 
00:00	47.0	47.0	47.0	48	28.3	0	0	---	0.00	30.103 
00:05	47.0	47.0	47.0	48	28.3	0	0	---	0.00	30.103 
00:10	47.0	47.0	47.0	48	28.3	0	0	---	0.00	30.103 
00:15	47.1	47.1	47.1	50	29.4	0	1	248	0.00	30.101 
00:20	47.4	47.4	47.4	47	28.2	0	1	248	0.00	30.101 
00:25	47.7	47.7	47.7	47	28.5	0	0	---	0.00	30.101 
00:30	48.2	48.2	48.2	45	27.9	0	1	248	0.00	30.096 
00:35	48.6	48.6	48.6	45	28.2	0	1	248	0.00	30.096 
00:40	48.9	48.9	48.9	44	28.0	0	0	---	0.00	30.096 
00:45	49.4	49.4	49.4	44	28.4	0	0	---	0.00	30.094 
00:50	49.6	49.6	49.6	45	29.1	0	1	248	0.00	30.094 
00:55	49.8	49.8	49.8	46	29.9	0	1	248	0.00	30.094 
01:00	50.1	50.1	50.1	47	30.7	0	1	248	0.00	30.081 
01:05	50.2	50.2	50.2	45	29.7	0	2	248	0.00	30.081 
01:10	50.5	50.5	50.5	44	29.4	0	2	248	0.00	30.081 
01:15	51.0	51.0	51.0	43	29.3	0	2	248	0.00	30.081 
01:20	51.3	51.3	51.3	43	29.6	0	3	248	0.00	30.081 
01:25	51.6	51.6	51.6	44	30.4	0	3	248	0.00	30.081 
01:30	51.7	51.7	51.7	45	31.1	0	1	248	0.00	30.091 
01:35	51.7	51.7	51.7	44	30.5	0	1	248	0.00	30.091 
01:40	51.7	51.7	51.7	43	29.9	1	4	248	0.00	30.091 
01:45	51.7	51.7	51.7	42	29.4	0	2	248	0.00	30.090 
01:50	51.7	51.7	51.7	42	29.4	0	1	248	0.00	30.090 
01:55	51.6	51.6	51.6	42	29.3	0	1	248	0.00	30.090 
02:00	51.4	51.4	51.4	42	29.1	0	1	248	0.00	30.093 
02:05	51.3	51.3	51.3	42	29.0	0	1	248	0.00	30.093 
02:10	51.1	51.1	51.1	43	29.4	0	2	248	0.00	30.093 
02:15	51.0	51.0	51.0	43	29.3	0	1	248	0.00	30.090 
02:20	50.8	50.8	50.8	42	28.5	0	1	248	0.00	30.090 
02:25	50.8	50.8	50.8	43	29.1	0	1	248	0.00	30.090 
02:30	50.7	50.7	50.7	43	29.0	0	1	248	0.00	30.085 
02:35	50.5	50.5	50.5	44	29.4	0	1	248	0.00	30.085 
02:40	50.4	50.4	50.4	45	29.9	0	1	248	0.00	30.085 
02:45	50.4	50.4	50.4	45	29.9	0	1	248	0.00	30.078 
02:50	50.1	50.1	50.1	45	29.6	0	1	248	0.00	30.078 
02:55	49.9	49.9	49.9	46	30.0	0	0	---	0.00	30.078 
03:00	49.8	49.8	49.8	46	29.9	0	0	---	0.00	30.078 
03:05	49.6	49.6	49.6	46	29.7	0	0	---	0.00	30.078 
03:10	49.5	49.5	49.5	47	30.1	0	0	---	0.00	30.078 
03:15	49.2	49.2	49.2	49	30.9	0	0	---	0.00	30.078 
03:20	48.9	48.9	48.9	49	30.6	0	0	---	0.00	30.078 
03:25	48.6	48.6	48.6	50	30.8	0	0	---	0.00	30.078 
03:30	48.6	48.6	48.6	50	30.8	0	1	248	0.00	30.085 
03:35	48.6	48.6	48.6	50	30.8	0	0	---	0.00	30.085 
03:40	48.8	48.8	48.8	50	31.0	0	0	---	0.00	30.085 
03:45	48.8	48.8	48.8	52	32.0	0	0	---	0.00	30.079 
03:50	48.6	48.6	48.6	52	31.8	0	0	---	0.00	30.079 
03:55	48.6	48.6	48.6	51	31.3	0	0	---	0.00	30.079 
04:00	48.6	48.6	48.6	51	31.3	0	1	248	0.00	30.078 
04:05	48.9	48.9	48.9	50	31.1	0	1	248	0.00	30.078 
04:10	49.5	49.5	49.5	49	31.1	0	1	248	0.00	30.078 
04:15	49.8	49.8	49.8	49	31.4	0	0	---	0.00	30.078 
04:20	50.1	50.1	50.1	48	31.2	0	2	248	0.00	30.078 
04:25	50.5	50.5	50.5	47	31.0	0	3	248	0.00	30.078 
04:30	51.3	51.3	51.3	46	31.2	1	4	248	0.00	30.078 
04:35	52.0	52.0	52.0	44	30.8	1	3	248	0.00	30.078 
04:40	52.5	52.5	52.5	43	30.7	0	3	248	0.00	30.078 
04:45	52.9	52.9	52.9	42	30.4	1	5	248	0.00	30.075 
04:50	53.3	53.3	53.3	41	30.2	1	4	248	0.00	30.075 
04:55	53.6	53.6	53.6	41	30.5	1	5	248	0.00	30.075 
05:00	53.9	53.9	53.9	40	30.1	1	3	248	0.00	30.070 
05:05	54.1	54.1	54.1	39	29.7	1	4	248	0.00	30.070 
05:10	54.4	54.4	54.4	39	30.0	1	4	248	0.00	30.070 
05:15	54.4	54.4	54.4	39	30.0	1	3	248	0.00	30.070 
05:20	54.4	54.4	54.4	38	29.3	1	3	248	0.00	30.070 
05:25	54.5	54.5	54.5	38	29.4	1	6	248	0.00	30.070 
05:30	54.5	54.5	54.5	38	29.4	1	6	270	0.00	30.064 
05:35	54.5	54.5	54.5	38	29.4	1	3	248	0.00	30.064 
05:40	54.5	54.5	54.5	38	29.4	1	5	248	0.00	30.064 
05:45	54.7	54.7	54.7	39	30.2	1	4	248	0.00	30.066 
05:50	54.8	54.8	54.8	38	29.7	1	5	248	0.00	30.066 
05:55	55.0	55.0	55.0	38	29.9	0	2	248	0.00	30.066 
06:00	55.1	55.1	55.1	38	30.0	1	2	248	0.00	30.069 
06:05	55.1	55.1	55.1	38	30.0	1	3	248	0.00	30.069 
06:10	55.3	55.3	55.3	37	29.5	0	3	248	0.00	30.069 
06:15	55.4	55.4	55.4	37	29.6	1	5	248	0.00	30.072 
06:20	55.6	55.6	55.6	38	30.4	1	3	248	0.00	30.072 
06:25	55.6	55.6	55.6	38	30.4	1	3	248	0.00	30.072 
06:30	55.6	55.6	55.6	37	29.7	0	2	248	0.00	30.068 
06:35	55.7	55.7	55.7	37	29.8	1	3	225	0.00	30.068 
06:40	55.7	55.7	55.7	37	29.8	0	2	225	0.00	30.068 
06:45	55.7	55.7	55.7	37	29.8	0	4	248	0.00	30.071 
06:50	55.9	55.9	55.9	37	30.0	0	3	248	0.00	30.071 
06:55	55.9	55.9	55.9	38	30.7	0	1	248	0.00	30.071 
07:00	55.7	55.7	55.7	38	30.5	0	2	248	0.00	30.071 
07:05	55.9	55.9	55.9	38	30.7	1	4	248	0.00	30.071 
07:10	55.9	55.9	55.9	42	33.1	0	2	248	0.00	30.071 
07:15	55.6	55.6	55.6	44	34.0	0	3	248	0.00	30.077 
07:20	55.4	55.4	55.4	44	33.9	0	1	248	0.00	30.077 
07:25	55.1	55.1	55.1	43	33.0	0	3	248	0.00	30.077 
07:30	55.1	55.1	55.1	44	33.6	0	3	248	0.00	30.078 
07:35	55.1	55.1	55.1	44	33.6	0	2	248	0.00	30.078 
07:40	55.1	55.1	55.1	43	33.0	0	1	248	0.00	30.078 
07:45	55.3	55.3	55.3	42	32.6	0	2	248	0.00	30.079 
07:50	55.4	55.4	55.4	42	32.7	0	3	248	0.00	30.079 
07:55	55.7	55.7	55.7	41	32.4	0	3	248	0.00	30.079 
08:00	55.9	55.9	55.9	41	32.5	0	2	248	0.00	30.080 
08:05	55.9	55.9	55.9	40	31.9	0	3	248	0.00	30.080 
08:10	56.0	56.0	56.0	41	32.6	0	3	248	0.00	30.080 
08:15	56.2	56.2	56.2	40	32.2	0	3	248	0.00	30.083 
08:20	56.2	56.2	56.2	40	32.2	0	2	248	0.00	30.083 
08:25	56.3	56.3	56.3	40	32.3	0	1	248	0.00	30.083 
08:30	56.3	56.3	56.3	39	31.7	1	4	248	0.00	30.086 
08:35	56.6	56.6	56.6	40	32.6	0	3	248	0.00	30.086 
08:40	56.7	56.7	56.7	40	32.7	1	3	248	0.00	30.086 
08:45	56.9	56.9	56.9	40	32.8	0	2	248	0.00	30.085 
08:50	57.0	57.0	57.0	39	32.3	1	4	248	0.00	30.085 
08:55	57.2	57.2	57.2	39	32.5	1	4	248	0.00	30.085 
09:00	57.3	57.3	57.3	39	32.6	1	2	248	0.00	30.084 
09:05	57.5	57.5	57.5	39	32.7	1	2	248	0.00	30.084 
09:10	57.6	57.6	57.6	39	32.8	0	2	248	0.00	30.084 
09:15	57.8	57.8	57.8	39	33.0	0	2	248	0.00	30.097 
09:20	58.1	58.1	58.1	38	32.6	0	3	248	0.00	30.097 
09:25	58.1	58.1	58.1	38	32.6	0	2	248	0.00	30.097 
09:30	58.3	58.3	58.3	38	32.8	0	2	248	0.00	30.098 
09:35	58.4	58.4	58.4	38	32.9	0	3	248	0.00	30.098 
09:40	58.7	58.7	58.7	38	33.2	1	3	248	0.00	30.098 
09:45	58.9	58.9	58.9	38	33.3	1	2	248	0.00	30.102 
09:50	59.2	59.2	59.2	38	33.6	0	3	248	0.00	30.102 
09:55	59.3	59.3	59.3	37	33.0	0	2	248	0.00	30.102 
10:00	59.5	59.5	59.5	37	33.2	0	2	248	0.00	30.101 
10:05	59.5	59.5	59.5	37	33.2	1	4	248	0.00	30.101 
10:10	59.6	59.6	59.6	37	33.3	1	3	248	0.00	30.101 
10:15	59.8	59.8	59.8	39	34.8	0	2	248	0.00	30.108 
10:20	59.9	59.9	59.9	39	34.9	0	3	248	0.00	30.108 
10:25	60.1	60.1	60.1	38	34.4	1	3	248	0.00	30.108 
10:30	60.2	60.2	60.2	38	34.5	0	3	225	0.00	30.104 
10:35	60.4	60.4	60.4	38	34.7	0	1	225	0.00	30.104 
10:40	60.5	60.5	60.5	38	34.8	0	2	225	0.00	30.104 
10:45	60.7	60.7	60.7	38	34.9	0	2	225	0.00	30.106 
10:50	60.9	60.9	60.9	38	35.1	0	2	225	0.00	30.106 
10:55	61.2	61.2	61.2	37	34.7	0	2	225	0.00	30.106 
11:00	61.5	61.5	61.5	38	35.7	0	3	225	0.00	30.105 
11:05	61.8	61.8	61.8	37	35.3	0	3	225	0.00	30.105 
11:10	62.0	62.0	62.0	36	34.7	0	3	225	0.00	30.105 
11:15	62.1	62.1	62.1	36	34.8	1	3	248	0.00	30.105 
11:20	62.1	62.1	62.1	36	34.8	1	3	248	0.00	30.105 
11:25	62.1	62.1	62.1	37	35.5	0	1	248	0.00	30.105 
11:30	62.1	62.1	62.1	36	34.8	0	1	248	0.00	30.109 
11:35	62.1	62.1	62.1	36	34.8	0	2	248	0.00	30.109 
11:40	62.1	62.1	62.1	37	35.5	0	1	248	0.00	30.109 
11:45	62.1	62.1	62.1	36	34.8	0	3	248	0.00	30.105 
11:50	62.3	62.3	62.3	36	35.0	0	2	248	0.00	30.105 
11:55	62.4	62.4	62.4	36	35.1	0	1	248	0.00	30.105 
12:00	62.4	62.4	62.4	36	35.1	0	2	248	0.00	30.110 
12:05	62.6	62.6	62.6	36	35.3	0	3	248	0.00	30.110 
12:10	62.9	62.9	62.9	36	35.5	0	2	248	0.00	30.110 
12:15	63.2	63.2	63.2	35	35.1	0	2	248	0.00	30.108 
12:20	63.7	63.7	63.7	35	35.5	0	3	248	0.00	30.108 
12:25	64.0	64.0	64.0	34	35.1	1	5	248	0.00	30.108 
12:30	64.3	64.3	64.3	34	35.3	0	3	248	0.00	30.113 
12:35	64.5	64.5	64.5	34	35.5	0	2	248	0.00	30.113 
12:40	64.8	64.8	64.8	34	35.8	0	1	248	0.00	30.113 
12:45	65.2	65.2	65.2	34	36.1	0	3	248	0.00	30.111 
12:50	65.5	65.5	65.5	33	35.6	1	5	248	0.00	30.111 
12:55	65.6	65.6	65.6	33	35.7	1	4	248	0.00	30.111 
13:00	65.6	65.6	65.6	32	34.9	1	4	248	0.00	30.105 
13:05	65.5	65.5	65.5	33	35.6	1	3	248	0.00	30.105 
13:10	65.5	65.5	65.5	34	36.4	0	2	248	0.00	30.105 
13:15	65.5	65.5	65.5	34	36.4	1	4	248	0.00	30.102 
13:20	65.6	65.6	65.6	33	35.7	1	4	248	0.00	30.102 
13:25	65.6	65.6	65.6	33	35.7	0	3	248	0.00	30.102 
13:30	65.8	65.8	65.8	35	37.4	0	4	248	0.00	30.103 
13:35	66.0	66.0	66.0	35	37.6	1	3	248	0.00	30.103 
13:40	66.0	66.0	66.0	36	38.3	0	1	248	0.00	30.103 
13:45	66.1	66.1	66.1	35	37.6	0	1	248	0.00	30.093 
13:50	66.3	66.3	66.3	34	37.1	1	3	248	0.00	30.093 
13:55	66.3	66.3	66.3	34	37.1	1	3	248	0.00	30.093 
14:00	66.3	66.3	66.3	33	36.3	1	3	248	0.00	30.099 
14:05	66.3	66.3	66.3	35	37.8	1	2	248	0.00	30.099 
14:10	66.3	66.3	66.3	34	37.1	0	2	248	0.00	30.099 
14:15	66.1	66.1	66.1	34	36.9	0	2	248	0.00	30.089 
14:20	66.1	66.1	66.1	35	37.6	0	2	248	0.00	30.089 
14:25	66.1	66.1	66.1	35	37.6	0	1	248	0.00	30.089 
14:30	66.1	66.1	66.1	35	37.6	0	2	248	0.00	30.087 
14:35	66.0	66.0	66.0	36	38.3	0	2	248	0.00	30.087 
14:40	66.0	66.0	66.0	38	39.7	0	1	248	0.00	30.087 
14:45	65.8	65.8	65.8	39	40.1	0	1	248	0.00	30.083 
14:50	65.6	65.6	65.6	40	40.6	0	1	248	0.00	30.083 
14:55	65.5	65.5	65.5	41	41.2	0	0	---	0.00	30.083 
15:00	65.5	65.5	65.5	41	41.2	0	0	---	0.00	30.072 
15:05	65.3	65.3	65.3	44	42.8	0	0	---	0.00	30.072 
15:10	65.0	65.0	65.0	41	40.7	0	1	248	0.00	30.072 
15:15	64.8	64.8	64.8	40	39.9	0	1	248	0.00	30.056 
15:20	64.8	64.8	64.8	42	41.2	0	1	248	0.00	30.056 
15:25	65.0	65.0	65.0	43	42.0	0	0	---	0.00	30.056 
15:30	65.0	65.0	65.0	39	39.4	0	1	248	0.00	30.049 
15:35	65.2	65.2	65.2	41	40.9	0	0	---	0.00	30.049 
15:40	65.2	65.2	65.2	39	39.6	0	2	248	0.00	30.049 
15:45	65.2	65.2	65.2	39	39.6	0	1	202	0.00	30.037 
15:50	65.2	65.2	65.2	39	39.6	0	1	202	0.00	30.037 
15:55	65.2	65.2	65.2	40	40.3	0	3	202	0.00	30.037 
16:00	65.2	65.2	65.2	39	39.6	0	1	202	0.00	30.034 
16:05	65.3	65.3	65.3	40	40.4	0	2	202	0.00	30.034 
16:10	65.5	65.5	65.5	37	38.5	1	2	135	0.00	30.034 
16:15	65.6	65.6	65.6	37	38.6	1	4	112	0.00	30.012 
16:20	65.8	65.8	65.8	37	38.8	1	4	90	0.00	30.012 
16:25	66.0	66.0	66.0	37	39.0	0	2	90	0.00	30.012 
16:30	66.1	66.1	66.1	37	39.1	0	2	90	0.00	30.008 
16:35	66.1	66.1	66.1	37	39.1	1	3	90	0.00	30.008 
16:40	66.1	66.1	66.1	38	39.7	0	2	112	0.00	30.008 
16:45	66.1	66.1	66.1	37	39.1	1	3	90	0.00	30.000 
16:50	66.1	66.1	66.1	37	39.1	0	3	248	0.00	30.000 
16:55	66.3	66.3	66.3	36	38.5	1	3	248	0.00	30.000 
17:00	66.3	66.3	66.3	36	38.5	1	5	202	0.00	29.997 
17:05	66.4	66.4	66.4	36	38.6	1	4	248	0.00	29.997 
17:10	66.4	66.4	66.4	35	37.9	2	4	90	0.00	29.997 
17:15	66.6	66.6	66.6	35	38.1	1	4	90	0.00	29.973 
17:20	66.6	66.6	66.6	36	38.8	1	4	68	0.00	29.973 
17:25	66.6	66.6	66.6	35	38.1	2	5	90	0.00	29.973 
17:30	66.8	66.8	66.8	35	38.3	3	10	90	0.00	29.942 
17:35	67.1	67.1	67.1	35	38.5	1	5	292	0.00	29.942 
17:40	67.1	67.1	67.1	34	37.8	2	7	90	0.00	29.942 
17:45	67.4	67.4	67.4	33	37.3	2	6	22	0.00	29.954 
17:50	67.6	67.6	67.6	33	37.5	1	2	225	0.00	29.954 
17:55	67.6	67.6	67.6	32	36.7	1	5	270	0.00	29.954 
18:00	67.9	67.9	67.9	32	36.9	1	9	225	0.00	29.957 
18:05	67.9	67.9	67.9	30	35.3	2	5	270	0.00	29.957 
18:10	68.1	68.1	68.1	30	35.5	1	5	248	0.00	29.957 
18:15	68.4	68.4	68.4	28	34.0	2	6	248	0.00	29.959 
18:20	68.6	68.6	68.6	28	34.2	2	5	248	0.00	29.959 
18:25	68.8	68.8	68.8	27	33.5	2	4	270	0.00	29.959 
18:30	68.8	68.8	68.8	28	34.4	1	4	270	0.00	29.968 
18:35	68.8	68.8	68.8	28	34.4	2	11	248	0.00	29.968 
18:40	68.8	68.8	68.8	28	34.4	1	4	248	0.00	29.968 
18:45	68.6	68.6	68.6	28	34.2	1	6	248	0.00	29.973 
18:50	68.4	68.4	68.4	27	33.1	1	7	292	0.00	29.973 
18:55	68.1	68.1	68.1	28	33.8	1	4	292	0.00	29.973 
19:00	67.9	67.9	67.9	28	33.6	1	5	248	0.00	29.974 
19:05	67.9	67.9	67.9	27	32.7	1	5	270	0.00	29.974 
19:10	67.6	67.6	67.6	27	32.4	1	7	225	0.00	29.974 
19:15	67.4	67.4	67.4	28	33.2	1	6	270	0.00	29.976 
19:20	67.3	67.3	67.3	27	32.2	1	4	248	0.00	29.976 
19:25	67.3	67.3	67.3	28	33.1	1	7	248	0.00	29.976 
19:30	67.1	67.1	67.1	28	32.9	1	6	248	0.00	29.983 
19:35	66.8	66.8	66.8	28	32.6	1	5	248	0.00	29.983 
19:40	66.6	66.6	66.6	28	32.5	1	3	248	0.00	29.983 
19:45	66.4	66.4	66.4	28	32.3	1	3	315	0.00	29.990 
19:50	66.3	66.3	66.3	27	31.3	0	3	248	0.00	29.990 
19:55	66.1	66.1	66.1	28	32.0	0	4	248	0.00	29.990 
20:00	65.8	65.8	65.8	29	32.7	0	2	270	0.00	29.989 
20:05	65.3	65.3	65.3	29	32.2	0	2	270	0.00	29.989 
20:10	65.0	65.0	65.0	29	32.0	0	3	225	0.00	29.989 
20:15	64.8	64.8	64.8	30	32.6	0	3	225	0.00	29.990 
20:20	64.7	64.7	64.7	30	32.5	0	3	225	0.00	29.990 
20:25	64.7	64.7	64.7	29	31.7	0	3	225	0.00	29.990 
20:30	64.5	64.5	64.5	30	32.4	0	2	270	0.00	29.995 
20:35	64.3	64.3	64.3	31	33.0	0	1	270	0.00	29.995 
20:40	64.2	64.2	64.2	31	32.9	0	3	270	0.00	29.995 
20:45	64.2	64.2	64.2	31	32.9	0	4	270	0.00	29.995 
20:50	64.2	64.2	64.2	31	32.9	0	4	225	0.00	29.995 
20:55	64.3	64.3	64.3	31	33.0	0	4	270	0.00	29.995 
21:00	64.2	64.2	64.2	31	32.9	0	2	270	0.00	29.993 
21:05	64.0	64.0	64.0	32	33.5	0	3	248	0.00	29.993 
21:10	63.9	63.9	63.9	31	32.7	0	2	248	0.00	29.993 
21:15	63.5	63.5	63.5	32	33.1	0	1	248	0.00	29.991 
21:20	63.4	63.4	63.4	33	33.8	0	1	248	0.00	29.991 
21:25	63.2	63.2	63.2	33	33.6	0	1	248	0.00	29.991 
21:30	63.1	63.1	63.1	34	34.3	0	1	248	0.00	29.989 
21:35	62.9	62.9	62.9	33	33.4	0	3	248	0.00	29.989 
21:40	62.7	62.7	62.7	33	33.2	0	2	248	0.00	29.989 
21:45	62.6	62.6	62.6	34	33.8	0	1	248	0.00	29.988 
21:50	62.3	62.3	62.3	34	33.6	0	2	248	0.00	29.988 
21:55	62.1	62.1	62.1	34	33.4	0	2	248	0.00	29.988 
22:00	62.0	62.0	62.0	35	34.0	0	1	248	0.00	29.989 
22:05	61.8	61.8	61.8	35	33.9	0	2	248	0.00	29.989 
22:10	61.6	61.6	61.6	35	33.7	0	1	248	0.00	29.989 
22:15	61.3	61.3	61.3	36	34.1	0	1	248	0.00	29.989 
22:20	61.2	61.2	61.2	36	34.0	0	1	248	0.00	29.989 
22:25	60.9	60.9	60.9	36	33.8	0	0	---	0.00	29.989 
22:30	60.5	60.5	60.5	37	34.1	0	0	---	0.00	29.994 
22:35	60.2	60.2	60.2	38	34.5	0	1	248	0.00	29.994 
22:40	59.8	59.8	59.8	38	34.1	0	0	---	0.00	29.994 
22:45	59.5	59.5	59.5	39	34.5	0	0	---	0.00	29.996 
22:50	59.0	59.0	59.0	39	34.1	0	0	---	0.00	29.996 
22:55	58.7	58.7	58.7	40	34.4	0	0	---	0.00	29.996 
23:00	58.4	58.4	58.4	40	34.2	0	0	---	0.00	30.000 
23:05	58.1	58.1	58.1	41	34.5	0	0	---	0.00	30.000 
23:10	57.8	57.8	57.8	42	34.9	0	0	---	0.00	30.000 
23:15	57.6	57.6	57.6	42	34.7	0	0	---	0.00	29.996 
23:20	57.5	57.5	57.5	42	34.6	0	0	---	0.00	29.996 
23:25	57.5	57.5	57.5	43	35.2	0	0	---	0.00	29.996 
23:30	57.3	57.3	57.3	43	35.0	0	0	---	0.00	29.995 
23:35	57.2	57.2	57.2	43	34.9	0	0	---	0.00	29.995 
23:40	57.0	57.0	57.0	43	34.7	0	0	---	0.00	29.995 
23:45	56.9	56.9	56.9	43	34.6	0	0	---	0.00	30.004 
23:50	56.7	56.7	56.7	44	35.0	0	0	---	0.00	30.004 
23:55	56.5	56.5	56.5	44	34.9	0	0	---	0.00	30.004 

CoCoRaHS
IN-AL-39
A2 Web Hosting
Creative Commons License
GoDaddy
search engine by freefind advanced

loaded 2018-11-17 05:46:18 • last modified 2010-11-18 10:43:29
Privacy PolicyDisclaimer
• wx.awcolley.com is powered by PmWiki v.2002016 •
• all content (unless otherwise noted) © 2018 A W Colley